sensor_id;sensor_type;location;lat;lon;timestamp;P1;durP1;ratioP1;P2;durP2;ratioP2
3155;SDS011;1588;50.892;7.082;2023-05-07T00:02:16;6.93;;;5.40;;
3155;SDS011;1588;50.892;7.082;2023-05-07T00:07:18;6.17;;;4.83;;
3155;SDS011;1588;50.892;7.082;2023-05-07T00:12:21;9.40;;;5.60;;
3155;SDS011;1588;50.892;7.082;2023-05-07T00:17:25;6.23;;;4.67;;
3155;SDS011;1588;50.892;7.082;2023-05-07T00:22:27;8.47;;;5.17;;
3155;SDS011;1588;50.892;7.082;2023-05-07T00:27:30;10.33;;;5.77;;
3155;SDS011;1588;50.892;7.082;2023-05-07T00:32:35;5.77;;;4.60;;
3155;SDS011;1588;50.892;7.082;2023-05-07T00:37:37;5.33;;;4.40;;
3155;SDS011;1588;50.892;7.082;2023-05-07T00:42:43;7.23;;;5.23;;
3155;SDS011;1588;50.892;7.082;2023-05-07T00:47:50;5.87;;;4.77;;
3155;SDS011;1588;50.892;7.082;2023-05-07T00:52:52;7.20;;;5.10;;
3155;SDS011;1588;50.892;7.082;2023-05-07T00:57:56;8.40;;;4.67;;
3155;SDS011;1588;50.892;7.082;2023-05-07T01:03:00;7.20;;;5.27;;
3155;SDS011;1588;50.892;7.082;2023-05-07T01:08:03;5.87;;;4.50;;
3155;SDS011;1588;50.892;7.082;2023-05-07T01:13:06;13.60;;;4.20;;
3155;SDS011;1588;50.892;7.082;2023-05-07T01:18:10;11.07;;;4.93;;
3155;SDS011;1588;50.892;7.082;2023-05-07T01:23:15;6.50;;;5.10;;
3155;SDS011;1588;50.892;7.082;2023-05-07T01:28:17;6.80;;;4.27;;
3155;SDS011;1588;50.892;7.082;2023-05-07T01:33:20;8.97;;;4.30;;
3155;SDS011;1588;50.892;7.082;2023-05-07T01:38:25;5.43;;;4.13;;
3155;SDS011;1588;50.892;7.082;2023-05-07T01:43:29;5.60;;;4.57;;
3155;SDS011;1588;50.892;7.082;2023-05-07T01:48:32;5.80;;;4.20;;
3155;SDS011;1588;50.892;7.082;2023-05-07T01:53:37;7.10;;;4.60;;
3155;SDS011;1588;50.892;7.082;2023-05-07T01:58:41;10.27;;;4.60;;
3155;SDS011;1588;50.892;7.082;2023-05-07T02:03:51;5.70;;;4.43;;
3155;SDS011;1588;50.892;7.082;2023-05-07T02:08:55;6.63;;;4.80;;
3155;SDS011;1588;50.892;7.082;2023-05-07T02:13:58;5.63;;;3.90;;
3155;SDS011;1588;50.892;7.082;2023-05-07T02:19:03;7.63;;;4.33;;
3155;SDS011;1588;50.892;7.082;2023-05-07T02:24:08;6.00;;;3.60;;
3155;SDS011;1588;50.892;7.082;2023-05-07T02:29:13;5.00;;;3.83;;
3155;SDS011;1588;50.892;7.082;2023-05-07T02:34:16;8.03;;;3.80;;
3155;SDS011;1588;50.892;7.082;2023-05-07T02:39:20;3.60;;;3.30;;
3155;SDS011;1588;50.892;7.082;2023-05-07T02:44:23;4.40;;;3.60;;
3155;SDS011;1588;50.892;7.082;2023-05-07T02:49:25;9.60;;;3.50;;
3155;SDS011;1588;50.892;7.082;2023-05-07T02:54:29;5.43;;;4.40;;
3155;SDS011;1588;50.892;7.082;2023-05-07T02:59:32;5.43;;;4.00;;
3155;SDS011;1588;50.892;7.082;2023-05-07T03:04:34;7.37;;;3.97;;
3155;SDS011;1588;50.892;7.082;2023-05-07T03:09:38;6.17;;;4.40;;
3155;SDS011;1588;50.892;7.082;2023-05-07T03:14:41;5.33;;;3.63;;
3155;SDS011;1588;50.892;7.082;2023-05-07T03:19:43;18.53;;;4.93;;
3155;SDS011;1588;50.892;7.082;2023-05-07T03:24:47;6.07;;;4.37;;
3155;SDS011;1588;50.892;7.082;2023-05-07T03:29:50;5.50;;;4.23;;
3155;SDS011;1588;50.892;7.082;2023-05-07T03:34:54;6.60;;;3.80;;
3155;SDS011;1588;50.892;7.082;2023-05-07T03:39:58;4.87;;;4.37;;
3155;SDS011;1588;50.892;7.082;2023-05-07T03:45:00;5.00;;;4.20;;
3155;SDS011;1588;50.892;7.082;2023-05-07T03:50:03;7.17;;;3.70;;
3155;SDS011;1588;50.892;7.082;2023-05-07T03:55:08;9.27;;;5.70;;
3155;SDS011;1588;50.892;7.082;2023-05-07T04:00:13;8.30;;;3.80;;
3155;SDS011;1588;50.892;7.082;2023-05-07T04:05:17;9.47;;;4.33;;
3155;SDS011;1588;50.892;7.082;2023-05-07T04:10:20;5.07;;;4.00;;
3155;SDS011;1588;50.892;7.082;2023-05-07T04:15:23;9.93;;;4.00;;
3155;SDS011;1588;50.892;7.082;2023-05-07T04:20:29;5.73;;;4.00;;
3155;SDS011;1588;50.892;7.082;2023-05-07T04:25:33;4.90;;;3.70;;
3155;SDS011;1588;50.892;7.082;2023-05-07T04:30:36;7.63;;;3.90;;
3155;SDS011;1588;50.892;7.082;2023-05-07T04:35:38;3.90;;;3.50;;
3155;SDS011;1588;50.892;7.082;2023-05-07T04:40:42;6.87;;;3.83;;
3155;SDS011;1588;50.892;7.082;2023-05-07T04:45:47;8.80;;;4.17;;
3155;SDS011;1588;50.892;7.082;2023-05-07T04:50:54;6.27;;;3.77;;
3155;SDS011;1588;50.892;7.082;2023-05-07T04:55:59;8.43;;;3.57;;
3155;SDS011;1588;50.892;7.082;2023-05-07T05:01:01;5.93;;;3.87;;
3155;SDS011;1588;50.892;7.082;2023-05-07T05:06:03;5.30;;;4.00;;
3155;SDS011;1588;50.892;7.082;2023-05-07T05:11:07;4.63;;;3.40;;
3155;SDS011;1588;50.892;7.082;2023-05-07T05:16:10;8.70;;;3.87;;
3155;SDS011;1588;50.892;7.082;2023-05-07T05:21:12;4.53;;;3.20;;
3155;SDS011;1588;50.892;7.082;2023-05-07T05:26:17;3.80;;;3.43;;
3155;SDS011;1588;50.892;7.082;2023-05-07T05:31:19;6.43;;;3.60;;
3155;SDS011;1588;50.892;7.082;2023-05-07T05:36:25;4.90;;;3.43;;
3155;SDS011;1588;50.892;7.082;2023-05-07T05:41:29;4.67;;;3.30;;
3155;SDS011;1588;50.892;7.082;2023-05-07T05:46:35;7.53;;;3.07;;
3155;SDS011;1588;50.892;7.082;2023-05-07T05:51:37;4.60;;;3.30;;
3155;SDS011;1588;50.892;7.082;2023-05-07T05:56:41;4.33;;;2.97;;
3155;SDS011;1588;50.892;7.082;2023-05-07T06:01:47;3.97;;;3.23;;
3155;SDS011;1588;50.892;7.082;2023-05-07T06:06:53;5.03;;;2.80;;
3155;SDS011;1588;50.892;7.082;2023-05-07T06:11:58;12.63;;;3.00;;
3155;SDS011;1588;50.892;7.082;2023-05-07T06:17:02;3.90;;;2.90;;
3155;SDS011;1588;50.892;7.082;2023-05-07T06:22:05;4.67;;;3.10;;
3155;SDS011;1588;50.892;7.082;2023-05-07T06:27:10;4.37;;;2.93;;
3155;SDS011;1588;50.892;7.082;2023-05-07T06:32:12;7.40;;;3.00;;
3155;SDS011;1588;50.892;7.082;2023-05-07T06:37:15;8.27;;;3.17;;
3155;SDS011;1588;50.892;7.082;2023-05-07T06:42:19;4.53;;;2.53;;
3155;SDS011;1588;50.892;7.082;2023-05-07T06:47:21;3.40;;;3.10;;
3155;SDS011;1588;50.892;7.082;2023-05-07T06:52:25;6.43;;;2.60;;
3155;SDS011;1588;50.892;7.082;2023-05-07T06:57:32;3.20;;;2.70;;
3155;SDS011;1588;50.892;7.082;2023-05-07T07:02:34;4.87;;;2.70;;
3155;SDS011;1588;50.892;7.082;2023-05-07T07:07:37;4.20;;;2.50;;
3155;SDS011;1588;50.892;7.082;2023-05-07T07:12:42;11.13;;;4.30;;
3155;SDS011;1588;50.892;7.082;2023-05-07T07:17:44;5.07;;;2.53;;
3155;SDS011;1588;50.892;7.082;2023-05-07T07:22:47;2.80;;;2.50;;
3155;SDS011;1588;50.892;7.082;2023-05-07T07:27:51;4.10;;;2.80;;
3155;SDS011;1588;50.892;7.082;2023-05-07T07:32:53;4.23;;;2.40;;
3155;SDS011;1588;50.892;7.082;2023-05-07T07:38:01;3.37;;;2.70;;
3155;SDS011;1588;50.892;7.082;2023-05-07T07:43:04;3.60;;;2.70;;
3155;SDS011;1588;50.892;7.082;2023-05-07T07:48:07;3.77;;;3.17;;
3155;SDS011;1588;50.892;7.082;2023-05-07T07:53:09;3.90;;;2.27;;
3155;SDS011;1588;50.892;7.082;2023-05-07T07:58:12;2.60;;;2.20;;
3155;SDS011;1588;50.892;7.082;2023-05-07T08:03:24;2.27;;;2.17;;
3155;SDS011;1588;50.892;7.082;2023-05-07T08:08:26;2.40;;;2.20;;
3155;SDS011;1588;50.892;7.082;2023-05-07T08:13:30;3.13;;;2.40;;
3155;SDS011;1588;50.892;7.082;2023-05-07T08:18:34;4.83;;;2.73;;
3155;SDS011;1588;50.892;7.082;2023-05-07T08:23:36;4.00;;;2.30;;
3155;SDS011;1588;50.892;7.082;2023-05-07T08:28:40;7.60;;;2.33;;
3155;SDS011;1588;50.892;7.082;2023-05-07T08:33:42;5.20;;;2.53;;
3155;SDS011;1588;50.892;7.082;2023-05-07T08:38:45;2.67;;;2.23;;
3155;SDS011;1588;50.892;7.082;2023-05-07T08:43:49;3.90;;;2.60;;
3155;SDS011;1588;50.892;7.082;2023-05-07T08:48:56;1.80;;;1.70;;
3155;SDS011;1588;50.892;7.082;2023-05-07T08:54:01;3.90;;;2.33;;
3155;SDS011;1588;50.892;7.082;2023-05-07T08:59:05;9.87;;;2.07;;
3155;SDS011;1588;50.892;7.082;2023-05-07T09:04:10;3.67;;;1.93;;
3155;SDS011;1588;50.892;7.082;2023-05-07T09:09:14;2.43;;;1.80;;
3155;SDS011;1588;50.892;7.082;2023-05-07T09:14:21;2.73;;;2.10;;
3155;SDS011;1588;50.892;7.082;2023-05-07T09:19:24;3.23;;;2.33;;
3155;SDS011;1588;50.892;7.082;2023-05-07T09:24:27;2.10;;;2.00;;
3155;SDS011;1588;50.892;7.082;2023-05-07T09:29:35;3.43;;;2.47;;
3155;SDS011;1588;50.892;7.082;2023-05-07T09:34:38;7.93;;;2.10;;
3155;SDS011;1588;50.892;7.082;2023-05-07T09:39:41;4.43;;;2.00;;
3155;SDS011;1588;50.892;7.082;2023-05-07T09:44:47;3.03;;;2.13;;
3155;SDS011;1588;50.892;7.082;2023-05-07T09:49:49;6.73;;;2.10;;
3155;SDS011;1588;50.892;7.082;2023-05-07T09:54:56;2.40;;;2.20;;
3155;SDS011;1588;50.892;7.082;2023-05-07T10:00:08;2.33;;;2.03;;
3155;SDS011;1588;50.892;7.082;2023-05-07T10:05:12;2.17;;;1.97;;
3155;SDS011;1588;50.892;7.082;2023-05-07T10:10:16;3.70;;;2.33;;
3155;SDS011;1588;50.892;7.082;2023-05-07T10:15:20;3.97;;;2.47;;
3155;SDS011;1588;50.892;7.082;2023-05-07T10:20:25;2.10;;;2.00;;
3155;SDS011;1588;50.892;7.082;2023-05-07T10:25:28;2.80;;;2.60;;
3155;SDS011;1588;50.892;7.082;2023-05-07T10:30:35;2.80;;;2.50;;
3155;SDS011;1588;50.892;7.082;2023-05-07T10:35:49;7.83;;;2.30;;
3155;SDS011;1588;50.892;7.082;2023-05-07T10:40:53;2.23;;;2.03;;
3155;SDS011;1588;50.892;7.082;2023-05-07T10:46:10;2.30;;;2.10;;
3155;SDS011;1588;50.892;7.082;2023-05-07T10:51:18;2.80;;;2.33;;
3155;SDS011;1588;50.892;7.082;2023-05-07T10:56:25;3.57;;;2.00;;
3155;SDS011;1588;50.892;7.082;2023-05-07T11:01:52;2.27;;;2.03;;
3155;SDS011;1588;50.892;7.082;2023-05-07T11:18:06;2.53;;;2.20;;
3155;SDS011;1588;50.892;7.082;2023-05-07T11:23:12;2.60;;;1.93;;
3155;SDS011;1588;50.892;7.082;2023-05-07T11:28:51;3.63;;;2.20;;
3155;SDS011;1588;50.892;7.082;2023-05-07T11:33:56;4.57;;;2.00;;
3155;SDS011;1588;50.892;7.082;2023-05-07T11:38:59;2.80;;;2.00;;
3155;SDS011;1588;50.892;7.082;2023-05-07T11:44:01;2.00;;;1.90;;
3155;SDS011;1588;50.892;7.082;2023-05-07T11:49:05;2.47;;;2.27;;
3155;SDS011;1588;50.892;7.082;2023-05-07T11:54:08;7.83;;;2.00;;
3155;SDS011;1588;50.892;7.082;2023-05-07T11:59:11;2.20;;;1.80;;
3155;SDS011;1588;50.892;7.082;2023-05-07T12:04:22;2.00;;;1.90;;
3155;SDS011;1588;50.892;7.082;2023-05-07T12:09:24;2.30;;;2.10;;
3155;SDS011;1588;50.892;7.082;2023-05-07T12:14:27;3.33;;;2.43;;
3155;SDS011;1588;50.892;7.082;2023-05-07T12:19:32;2.27;;;2.10;;
3155;SDS011;1588;50.892;7.082;2023-05-07T12:24:42;3.97;;;2.30;;
3155;SDS011;1588;50.892;7.082;2023-05-07T12:29:47;3.13;;;2.17;;
3155;SDS011;1588;50.892;7.082;2023-05-07T12:34:51;2.40;;;2.20;;
3155;SDS011;1588;50.892;7.082;2023-05-07T12:40:03;9.30;;;2.50;;
3155;SDS011;1588;50.892;7.082;2023-05-07T12:45:09;2.20;;;2.00;;
3155;SDS011;1588;50.892;7.082;2023-05-07T12:50:13;2.57;;;2.37;;
3155;SDS011;1588;50.892;7.082;2023-05-07T12:55:16;8.23;;;2.33;;
3155;SDS011;1588;50.892;7.082;2023-05-07T13:00:31;2.13;;;1.80;;
3155;SDS011;1588;50.892;7.082;2023-05-07T13:05:36;1.93;;;1.83;;
3155;SDS011;1588;50.892;7.082;2023-05-07T13:10:38;5.57;;;2.13;;
3155;SDS011;1588;50.892;7.082;2023-05-07T13:15:40;2.50;;;2.20;;
3155;SDS011;1588;50.892;7.082;2023-05-07T13:20:44;2.37;;;2.27;;
3155;SDS011;1588;50.892;7.082;2023-05-07T13:25:47;3.37;;;1.97;;
3155;SDS011;1588;50.892;7.082;2023-05-07T13:30:49;2.50;;;2.17;;
3155;SDS011;1588;50.892;7.082;2023-05-07T13:35:53;3.40;;;2.80;;
3155;SDS011;1588;50.892;7.082;2023-05-07T13:40:57;10.03;;;2.90;;
3155;SDS011;1588;50.892;7.082;2023-05-07T13:45:59;3.43;;;2.40;;
3155;SDS011;1588;50.892;7.082;2023-05-07T13:51:03;2.50;;;2.30;;
3155;SDS011;1588;50.892;7.082;2023-05-07T13:56:08;7.23;;;2.50;;
3155;SDS011;1588;50.892;7.082;2023-05-07T14:01:13;4.90;;;3.87;;
3155;SDS011;1588;50.892;7.082;2023-05-07T14:06:16;3.40;;;3.10;;
3155;SDS011;1588;50.892;7.082;2023-05-07T14:11:21;4.17;;;3.10;;
3155;SDS011;1588;50.892;7.082;2023-05-07T14:16:24;3.87;;;2.20;;
3155;SDS011;1588;50.892;7.082;2023-05-07T14:21:28;3.57;;;3.20;;
3155;SDS011;1588;50.892;7.082;2023-05-07T14:26:31;6.80;;;2.70;;
3155;SDS011;1588;50.892;7.082;2023-05-07T14:31:34;3.83;;;2.10;;
3155;SDS011;1588;50.892;7.082;2023-05-07T14:36:37;3.20;;;2.27;;
3155;SDS011;1588;50.892;7.082;2023-05-07T14:41:40;4.63;;;2.87;;
3155;SDS011;1588;50.892;7.082;2023-05-07T14:46:42;3.87;;;2.40;;
3155;SDS011;1588;50.892;7.082;2023-05-07T14:51:46;2.67;;;2.03;;
3155;SDS011;1588;50.892;7.082;2023-05-07T14:56:50;4.70;;;2.80;;
3155;SDS011;1588;50.892;7.082;2023-05-07T15:01:52;5.57;;;2.37;;
3155;SDS011;1588;50.892;7.082;2023-05-07T15:06:56;3.93;;;3.30;;
3155;SDS011;1588;50.892;7.082;2023-05-07T15:11:59;3.40;;;2.60;;
3155;SDS011;1588;50.892;7.082;2023-05-07T15:17:02;3.73;;;3.37;;
3155;SDS011;1588;50.892;7.082;2023-05-07T15:22:06;6.80;;;3.70;;
3155;SDS011;1588;50.892;7.082;2023-05-07T15:27:14;5.70;;;3.60;;
3155;SDS011;1588;50.892;7.082;2023-05-07T15:32:17;3.47;;;2.97;;
3155;SDS011;1588;50.892;7.082;2023-05-07T15:37:21;3.70;;;2.80;;
3155;SDS011;1588;50.892;7.082;2023-05-07T15:42:23;3.50;;;2.33;;
3155;SDS011;1588;50.892;7.082;2023-05-07T15:47:26;5.50;;;2.07;;
3155;SDS011;1588;50.892;7.082;2023-05-07T15:52:29;2.40;;;2.20;;
3155;SDS011;1588;50.892;7.082;2023-05-07T15:57:33;1.70;;;1.60;;
3155;SDS011;1588;50.892;7.082;2023-05-07T16:02:35;1.97;;;1.87;;
3155;SDS011;1588;50.892;7.082;2023-05-07T16:07:42;4.33;;;1.87;;
3155;SDS011;1588;50.892;7.082;2023-05-07T16:12:45;9.90;;;1.87;;
3155;SDS011;1588;50.892;7.082;2023-05-07T16:17:48;2.17;;;1.97;;
3155;SDS011;1588;50.892;7.082;2023-05-07T16:22:52;3.63;;;2.20;;
3155;SDS011;1588;50.892;7.082;2023-05-07T16:27:55;3.63;;;3.33;;
3155;SDS011;1588;50.892;7.082;2023-05-07T16:32:59;3.30;;;2.83;;
3155;SDS011;1588;50.892;7.082;2023-05-07T16:38:03;5.13;;;2.50;;
3155;SDS011;1588;50.892;7.082;2023-05-07T16:43:09;4.53;;;2.83;;
3155;SDS011;1588;50.892;7.082;2023-05-07T16:48:12;2.87;;;2.60;;
3155;SDS011;1588;50.892;7.082;2023-05-07T16:53:16;5.10;;;3.20;;
3155;SDS011;1588;50.892;7.082;2023-05-07T16:58:18;4.07;;;3.30;;
3155;SDS011;1588;50.892;7.082;2023-05-07T17:03:20;4.00;;;3.60;;
3155;SDS011;1588;50.892;7.082;2023-05-07T17:08:24;7.77;;;3.87;;
3155;SDS011;1588;50.892;7.082;2023-05-07T17:13:26;4.73;;;3.93;;
3155;SDS011;1588;50.892;7.082;2023-05-07T17:18:32;4.97;;;3.40;;
3155;SDS011;1588;50.892;7.082;2023-05-07T17:23:35;4.27;;;3.60;;
3155;SDS011;1588;50.892;7.082;2023-05-07T17:28:41;8.13;;;3.87;;
3155;SDS011;1588;50.892;7.082;2023-05-07T17:33:43;7.73;;;4.40;;
3155;SDS011;1588;50.892;7.082;2023-05-07T17:38:47;7.37;;;5.63;;
3155;SDS011;1588;50.892;7.082;2023-05-07T17:43:49;9.43;;;3.80;;
3155;SDS011;1588;50.892;7.082;2023-05-07T17:48:57;9.07;;;5.03;;
3155;SDS011;1588;50.892;7.082;2023-05-07T17:54:03;6.00;;;3.70;;
3155;SDS011;1588;50.892;7.082;2023-05-07T17:59:06;5.27;;;4.43;;
3155;SDS011;1588;50.892;7.082;2023-05-07T18:04:08;4.63;;;3.83;;
3155;SDS011;1588;50.892;7.082;2023-05-07T18:09:16;5.37;;;3.90;;
3155;SDS011;1588;50.892;7.082;2023-05-07T18:14:22;5.50;;;3.87;;
3155;SDS011;1588;50.892;7.082;2023-05-07T18:19:26;6.53;;;4.40;;
3155;SDS011;1588;50.892;7.082;2023-05-07T18:24:30;5.00;;;4.50;;
3155;SDS011;1588;50.892;7.082;2023-05-07T18:29:32;4.60;;;3.90;;
3155;SDS011;1588;50.892;7.082;2023-05-07T18:34:40;9.40;;;4.80;;
3155;SDS011;1588;50.892;7.082;2023-05-07T18:39:45;6.60;;;4.90;;
3155;SDS011;1588;50.892;7.082;2023-05-07T18:44:48;7.13;;;4.93;;
3155;SDS011;1588;50.892;7.082;2023-05-07T18:49:51;24.23;;;5.00;;
3155;SDS011;1588;50.892;7.082;2023-05-07T18:54:57;5.90;;;5.03;;
3155;SDS011;1588;50.892;7.082;2023-05-07T19:00:02;7.60;;;5.97;;
3155;SDS011;1588;50.892;7.082;2023-05-07T19:05:09;14.90;;;6.50;;
3155;SDS011;1588;50.892;7.082;2023-05-07T19:10:14;9.50;;;7.43;;
3155;SDS011;1588;50.892;7.082;2023-05-07T19:15:16;9.37;;;6.63;;
3155;SDS011;1588;50.892;7.082;2023-05-07T19:20:19;10.33;;;6.90;;
3155;SDS011;1588;50.892;7.082;2023-05-07T19:25:26;10.80;;;7.50;;
3155;SDS011;1588;50.892;7.082;2023-05-07T19:30:28;10.93;;;6.77;;
3155;SDS011;1588;50.892;7.082;2023-05-07T19:35:30;14.90;;;7.40;;
3155;SDS011;1588;50.892;7.082;2023-05-07T19:40:39;12.20;;;8.13;;
3155;SDS011;1588;50.892;7.082;2023-05-07T19:45:41;15.33;;;8.37;;
3155;SDS011;1588;50.892;7.082;2023-05-07T19:50:47;14.80;;;9.20;;
3155;SDS011;1588;50.892;7.082;2023-05-07T19:56:00;11.53;;;8.03;;
3155;SDS011;1588;50.892;7.082;2023-05-07T20:01:04;16.10;;;8.00;;
3155;SDS011;1588;50.892;7.082;2023-05-07T20:06:09;17.90;;;8.57;;
3155;SDS011;1588;50.892;7.082;2023-05-07T20:11:13;12.30;;;6.97;;
3155;SDS011;1588;50.892;7.082;2023-05-07T20:16:15;8.07;;;6.07;;
3155;SDS011;1588;50.892;7.082;2023-05-07T20:21:18;12.97;;;7.03;;
3155;SDS011;1588;50.892;7.082;2023-05-07T20:26:21;8.47;;;6.10;;
3155;SDS011;1588;50.892;7.082;2023-05-07T20:31:24;12.70;;;7.90;;
3155;SDS011;1588;50.892;7.082;2023-05-07T20:36:28;10.27;;;7.40;;
3155;SDS011;1588;50.892;7.082;2023-05-07T20:41:31;12.87;;;8.20;;
3155;SDS011;1588;50.892;7.082;2023-05-07T20:46:34;10.23;;;7.43;;
3155;SDS011;1588;50.892;7.082;2023-05-07T20:51:37;8.60;;;6.53;;
3155;SDS011;1588;50.892;7.082;2023-05-07T20:56:41;13.30;;;7.83;;
3155;SDS011;1588;50.892;7.082;2023-05-07T21:01:44;11.57;;;7.60;;
3155;SDS011;1588;50.892;7.082;2023-05-07T21:06:49;12.50;;;8.17;;
3155;SDS011;1588;50.892;7.082;2023-05-07T21:11:53;10.90;;;7.57;;
3155;SDS011;1588;50.892;7.082;2023-05-07T21:16:55;10.50;;;7.07;;
3155;SDS011;1588;50.892;7.082;2023-05-07T21:21:59;10.43;;;6.77;;
3155;SDS011;1588;50.892;7.082;2023-05-07T21:27:08;12.13;;;6.97;;
3155;SDS011;1588;50.892;7.082;2023-05-07T21:32:10;10.13;;;6.63;;
3155;SDS011;1588;50.892;7.082;2023-05-07T21:37:13;10.53;;;6.63;;
3155;SDS011;1588;50.892;7.082;2023-05-07T21:42:17;9.70;;;6.63;;
3155;SDS011;1588;50.892;7.082;2023-05-07T21:47:22;11.67;;;6.40;;
3155;SDS011;1588;50.892;7.082;2023-05-07T21:52:27;7.30;;;5.83;;
3155;SDS011;1588;50.892;7.082;2023-05-07T21:57:31;12.03;;;6.13;;
3155;SDS011;1588;50.892;7.082;2023-05-07T22:02:35;8.77;;;5.90;;
3155;SDS011;1588;50.892;7.082;2023-05-07T22:07:37;9.33;;;6.07;;
3155;SDS011;1588;50.892;7.082;2023-05-07T22:12:44;9.43;;;6.40;;
3155;SDS011;1588;50.892;7.082;2023-05-07T22:17:47;7.00;;;5.80;;
3155;SDS011;1588;50.892;7.082;2023-05-07T22:22:51;8.43;;;5.80;;
3155;SDS011;1588;50.892;7.082;2023-05-07T22:27:55;9.83;;;6.40;;
3155;SDS011;1588;50.892;7.082;2023-05-07T22:32:58;11.37;;;5.87;;
3155;SDS011;1588;50.892;7.082;2023-05-07T22:38:01;11.87;;;7.00;;
3155;SDS011;1588;50.892;7.082;2023-05-07T22:43:05;8.27;;;5.80;;
3155;SDS011;1588;50.892;7.082;2023-05-07T22:48:07;6.80;;;5.70;;
3155;SDS011;1588;50.892;7.082;2023-05-07T22:53:12;9.80;;;6.20;;
3155;SDS011;1588;50.892;7.082;2023-05-07T22:58:19;10.00;;;6.40;;
3155;SDS011;1588;50.892;7.082;2023-05-07T23:03:22;9.27;;;5.77;;
3155;SDS011;1588;50.892;7.082;2023-05-07T23:08:24;9.63;;;6.70;;
3155;SDS011;1588;50.892;7.082;2023-05-07T23:13:29;10.63;;;7.63;;
3155;SDS011;1588;50.892;7.082;2023-05-07T23:18:32;11.00;;;6.93;;
3155;SDS011;1588;50.892;7.082;2023-05-07T23:23:34;11.00;;;7.00;;
3155;SDS011;1588;50.892;7.082;2023-05-07T23:28:38;11.23;;;6.27;;
3155;SDS011;1588;50.892;7.082;2023-05-07T23:33:40;8.13;;;6.40;;
3155;SDS011;1588;50.892;7.082;2023-05-07T23:38:43;9.70;;;6.50;;
3155;SDS011;1588;50.892;7.082;2023-05-07T23:43:46;10.60;;;7.00;;
3155;SDS011;1588;50.892;7.082;2023-05-07T23:48:49;14.90;;;6.60;;
3155;SDS011;1588;50.892;7.082;2023-05-07T23:53:51;11.07;;;6.30;;
3155;SDS011;1588;50.892;7.082;2023-05-07T23:58:55;11.40;;;6.37;;
